sensor_id;sensor_type;location;lat;lon;timestamp;temperature;humidity
52799;DHT22;38667;42.872;74.622;2022-12-20T00:02:00;-3.70;86.90
52799;DHT22;38667;42.872;74.622;2022-12-20T00:04:27;-3.80;86.10
52799;DHT22;38667;42.872;74.622;2022-12-20T00:06:53;-3.80;85.70
52799;DHT22;38667;42.872;74.622;2022-12-20T00:09:22;-3.80;85.30
52799;DHT22;38667;42.872;74.622;2022-12-20T00:11:48;-3.80;85.50
52799;DHT22;38667;42.872;74.622;2022-12-20T00:14:14;-3.80;85.00
52799;DHT22;38667;42.872;74.622;2022-12-20T00:16:41;-3.90;85.40
52799;DHT22;38667;42.872;74.622;2022-12-20T00:19:09;-3.90;85.70
52799;DHT22;38667;42.872;74.622;2022-12-20T00:21:35;-4.00;85.90
52799;DHT22;38667;42.872;74.622;2022-12-20T00:24:02;-3.90;86.10
52799;DHT22;38667;42.872;74.622;2022-12-20T00:26:32;-3.90;86.50
52799;DHT22;38667;42.872;74.622;2022-12-20T00:28:59;-3.90;85.90
52799;DHT22;38667;42.872;74.622;2022-12-20T00:31:27;-3.90;86.00
52799;DHT22;38667;42.872;74.622;2022-12-20T00:33:55;-3.90;85.90
52799;DHT22;38667;42.872;74.622;2022-12-20T00:36:22;-3.90;85.60
52799;DHT22;38667;42.872;74.622;2022-12-20T00:38:50;-3.90;85.70
52799;DHT22;38667;42.872;74.622;2022-12-20T00:41:18;-3.90;86.00
52799;DHT22;38667;42.872;74.622;2022-12-20T00:43:49;-3.90;85.00
52799;DHT22;38667;42.872;74.622;2022-12-20T00:46:17;-3.90;84.80
52799;DHT22;38667;42.872;74.622;2022-12-20T00:48:43;-3.90;84.10
52799;DHT22;38667;42.872;74.622;2022-12-20T00:51:12;-3.90;84.10
52799;DHT22;38667;42.872;74.622;2022-12-20T00:53:39;-3.90;83.40
52799;DHT22;38667;42.872;74.622;2022-12-20T00:56:06;-3.90;83.90
52799;DHT22;38667;42.872;74.622;2022-12-20T00:58:33;-3.90;83.50
52799;DHT22;38667;42.872;74.622;2022-12-20T01:01:01;-3.90;83.10
52799;DHT22;38667;42.872;74.622;2022-12-20T01:03:28;-3.90;83.10
52799;DHT22;38667;42.872;74.622;2022-12-20T01:05:55;-3.90;83.40
52799;DHT22;38667;42.872;74.622;2022-12-20T01:08:22;-3.90;82.60
52799;DHT22;38667;42.872;74.622;2022-12-20T01:10:58;-3.90;82.70
52799;DHT22;38667;42.872;74.622;2022-12-20T01:13:24;-3.90;82.80
52799;DHT22;38667;42.872;74.622;2022-12-20T01:15:50;-3.80;82.90
52799;DHT22;38667;42.872;74.622;2022-12-20T01:18:19;-3.80;82.70
52799;DHT22;38667;42.872;74.622;2022-12-20T01:20:45;-3.90;82.20
52799;DHT22;38667;42.872;74.622;2022-12-20T01:23:12;-3.90;82.30
52799;DHT22;38667;42.872;74.622;2022-12-20T01:25:38;-3.90;82.50
52799;DHT22;38667;42.872;74.622;2022-12-20T01:28:04;-3.80;82.20
52799;DHT22;38667;42.872;74.622;2022-12-20T01:30:31;-3.80;81.90
52799;DHT22;38667;42.872;74.622;2022-12-20T01:32:57;-3.80;81.60
52799;DHT22;38667;42.872;74.622;2022-12-20T01:35:25;-3.80;81.30
52799;DHT22;38667;42.872;74.622;2022-12-20T01:37:51;-3.80;81.00
52799;DHT22;38667;42.872;74.622;2022-12-20T01:40:18;-3.80;81.00
52799;DHT22;38667;42.872;74.622;2022-12-20T01:42:47;-3.80;81.10
52799;DHT22;38667;42.872;74.622;2022-12-20T01:45:22;-3.80;80.80
52799;DHT22;38667;42.872;74.622;2022-12-20T01:47:50;-3.90;82.20
52799;DHT22;38667;42.872;74.622;2022-12-20T01:50:16;-3.80;82.10
52799;DHT22;38667;42.872;74.622;2022-12-20T01:52:46;-3.80;81.40
52799;DHT22;38667;42.872;74.622;2022-12-20T01:55:19;-3.80;81.90
52799;DHT22;38667;42.872;74.622;2022-12-20T01:57:50;-3.70;82.00
52799;DHT22;38667;42.872;74.622;2022-12-20T02:00:18;-3.70;82.40
52799;DHT22;38667;42.872;74.622;2022-12-20T02:02:46;-3.60;83.10
52799;DHT22;38667;42.872;74.622;2022-12-20T02:05:14;-3.50;82.40
52799;DHT22;38667;42.872;74.622;2022-12-20T02:07:44;-3.50;82.40
52799;DHT22;38667;42.872;74.622;2022-12-20T02:10:12;-3.50;82.50
52799;DHT22;38667;42.872;74.622;2022-12-20T02:12:40;-3.40;83.10
52799;DHT22;38667;42.872;74.622;2022-12-20T02:15:20;-3.30;83.20
52799;DHT22;38667;42.872;74.622;2022-12-20T02:17:58;-3.20;83.20
52799;DHT22;38667;42.872;74.622;2022-12-20T02:21:11;-3.00;82.60
52799;DHT22;38667;42.872;74.622;2022-12-20T02:27:24;-2.80;82.30
52799;DHT22;38667;42.872;74.622;2022-12-20T02:30:06;-2.70;82.60
52799;DHT22;38667;42.872;74.622;2022-12-20T02:32:37;-2.60;82.40
52799;DHT22;38667;42.872;74.622;2022-12-20T02:35:05;-2.50;82.40
52799;DHT22;38667;42.872;74.622;2022-12-20T02:37:31;-2.40;82.10
52799;DHT22;38667;42.872;74.622;2022-12-20T02:39:58;-2.40;82.10
52799;DHT22;38667;42.872;74.622;2022-12-20T02:42:26;-2.40;82.40
52799;DHT22;38667;42.872;74.622;2022-12-20T02:44:57;-2.30;83.00
52799;DHT22;38667;42.872;74.622;2022-12-20T02:47:31;-2.20;83.00
52799;DHT22;38667;42.872;74.622;2022-12-20T02:49:58;-2.20;82.80
52799;DHT22;38667;42.872;74.622;2022-12-20T02:52:27;-2.10;83.10
52799;DHT22;38667;42.872;74.622;2022-12-20T02:54:55;-2.10;83.00
52799;DHT22;38667;42.872;74.622;2022-12-20T02:57:26;-2.00;83.30
52799;DHT22;38667;42.872;74.622;2022-12-20T02:59:57;-1.90;82.50
52799;DHT22;38667;42.872;74.622;2022-12-20T03:02:27;-1.70;82.60
52799;DHT22;38667;42.872;74.622;2022-12-20T03:04:54;-1.70;81.00
52799;DHT22;38667;42.872;74.622;2022-12-20T03:07:22;-1.60;80.70
52799;DHT22;38667;42.872;74.622;2022-12-20T03:09:51;-1.60;80.90
52799;DHT22;38667;42.872;74.622;2022-12-20T03:12:17;-1.50;81.40
52799;DHT22;38667;42.872;74.622;2022-12-20T03:14:44;-1.30;81.30
52799;DHT22;38667;42.872;74.622;2022-12-20T03:17:10;-1.20;80.30
52799;DHT22;38667;42.872;74.622;2022-12-20T03:19:38;-1.20;80.10
52799;DHT22;38667;42.872;74.622;2022-12-20T03:22:04;-1.10;80.20
52799;DHT22;38667;42.872;74.622;2022-12-20T03:24:31;-1.00;79.90
52799;DHT22;38667;42.872;74.622;2022-12-20T03:26:57;-1.00;80.10
52799;DHT22;38667;42.872;74.622;2022-12-20T03:29:23;-1.00;80.20
52799;DHT22;38667;42.872;74.622;2022-12-20T03:31:50;-0.90;80.40
52799;DHT22;38667;42.872;74.622;2022-12-20T03:34:18;-0.90;80.40
52799;DHT22;38667;42.872;74.622;2022-12-20T03:36:46;-0.80;81.20
52799;DHT22;38667;42.872;74.622;2022-12-20T03:39:12;-0.70;80.60
52799;DHT22;38667;42.872;74.622;2022-12-20T03:41:38;-0.70;80.50
52799;DHT22;38667;42.872;74.622;2022-12-20T03:44:05;-0.60;80.50
52799;DHT22;38667;42.872;74.622;2022-12-20T03:46:31;-0.50;79.90
52799;DHT22;38667;42.872;74.622;2022-12-20T03:48:58;-0.30;78.50
52799;DHT22;38667;42.872;74.622;2022-12-20T03:51:24;-0.20;78.10
52799;DHT22;38667;42.872;74.622;2022-12-20T03:53:52;-0.10;78.20
52799;DHT22;38667;42.872;74.622;2022-12-20T03:56:18;0.00;78.50
52799;DHT22;38667;42.872;74.622;2022-12-20T03:58:44;0.10;78.20
52799;DHT22;38667;42.872;74.622;2022-12-20T04:01:18;0.20;77.90
52799;DHT22;38667;42.872;74.622;2022-12-20T04:03:45;0.30;77.50
52799;DHT22;38667;42.872;74.622;2022-12-20T04:06:11;0.50;77.20
52799;DHT22;38667;42.872;74.622;2022-12-20T04:08:38;0.60;71.50
52799;DHT22;38667;42.872;74.622;2022-12-20T04:11:06;1.10;62.60
52799;DHT22;38667;42.872;74.622;2022-12-20T04:13:32;1.50;61.80
52799;DHT22;38667;42.872;74.622;2022-12-20T04:15:58;1.90;53.40
52799;DHT22;38667;42.872;74.622;2022-12-20T04:18:25;2.30;54.70
52799;DHT22;38667;42.872;74.622;2022-12-20T04:20:52;2.50;55.40
52799;DHT22;38667;42.872;74.622;2022-12-20T04:23:19;2.70;55.70
52799;DHT22;38667;42.872;74.622;2022-12-20T04:25:45;2.80;50.80
52799;DHT22;38667;42.872;74.622;2022-12-20T04:28:13;3.10;51.10
52799;DHT22;38667;42.872;74.622;2022-12-20T04:30:39;3.30;52.10
52799;DHT22;38667;42.872;74.622;2022-12-20T04:33:05;3.40;53.80
52799;DHT22;38667;42.872;74.622;2022-12-20T04:35:32;3.50;53.10
52799;DHT22;38667;42.872;74.622;2022-12-20T04:37:58;3.50;51.30
52799;DHT22;38667;42.872;74.622;2022-12-20T04:40:24;3.70;49.40
52799;DHT22;38667;42.872;74.622;2022-12-20T04:42:51;3.90;47.40
52799;DHT22;38667;42.872;74.622;2022-12-20T04:45:19;4.10;47.70
52799;DHT22;38667;42.872;74.622;2022-12-20T04:47:45;4.30;47.10
52799;DHT22;38667;42.872;74.622;2022-12-20T04:50:11;4.40;46.00
52799;DHT22;38667;42.872;74.622;2022-12-20T04:52:38;4.60;45.90
52799;DHT22;38667;42.872;74.622;2022-12-20T04:55:05;4.70;47.20
52799;DHT22;38667;42.872;74.622;2022-12-20T04:57:31;4.80;45.10
52799;DHT22;38667;42.872;74.622;2022-12-20T04:59:57;4.90;46.20
52799;DHT22;38667;42.872;74.622;2022-12-20T05:02:26;5.00;46.00
52799;DHT22;38667;42.872;74.622;2022-12-20T05:04:52;5.10;46.30
52799;DHT22;38667;42.872;74.622;2022-12-20T05:07:18;5.10;47.40
52799;DHT22;38667;42.872;74.622;2022-12-20T05:09:45;5.10;47.70
52799;DHT22;38667;42.872;74.622;2022-12-20T05:12:11;5.10;47.60
52799;DHT22;38667;42.872;74.622;2022-12-20T05:14:37;5.10;47.70
52799;DHT22;38667;42.872;74.622;2022-12-20T05:17:04;5.10;47.60
52799;DHT22;38667;42.872;74.622;2022-12-20T05:19:32;5.10;46.90
52799;DHT22;38667;42.872;74.622;2022-12-20T05:21:58;5.10;44.80
52799;DHT22;38667;42.872;74.622;2022-12-20T05:24:24;5.30;42.30
52799;DHT22;38667;42.872;74.622;2022-12-20T05:26:51;5.50;42.30
52799;DHT22;38667;42.872;74.622;2022-12-20T05:29:17;5.50;43.20
52799;DHT22;38667;42.872;74.622;2022-12-20T05:31:43;5.40;43.40
52799;DHT22;38667;42.872;74.622;2022-12-20T05:34:10;5.60;41.80
52799;DHT22;38667;42.872;74.622;2022-12-20T05:36:37;5.60;42.30
52799;DHT22;38667;42.872;74.622;2022-12-20T05:39:04;5.60;42.40
52799;DHT22;38667;42.872;74.622;2022-12-20T05:41:30;5.60;41.90
52799;DHT22;38667;42.872;74.622;2022-12-20T05:43:56;5.70;40.60
52799;DHT22;38667;42.872;74.622;2022-12-20T05:46:23;5.70;39.30
52799;DHT22;38667;42.872;74.622;2022-12-20T05:48:49;5.80;39.20
52799;DHT22;38667;42.872;74.622;2022-12-20T05:51:16;6.10;38.70
52799;DHT22;38667;42.872;74.622;2022-12-20T05:53:44;6.10;39.60
52799;DHT22;38667;42.872;74.622;2022-12-20T05:56:10;6.10;39.50
52799;DHT22;38667;42.872;74.622;2022-12-20T05:58:36;6.00;40.10
52799;DHT22;38667;42.872;74.622;2022-12-20T06:01:04;5.90;40.60
52799;DHT22;38667;42.872;74.622;2022-12-20T06:03:31;5.90;40.10
52799;DHT22;38667;42.872;74.622;2022-12-20T06:05:57;6.00;38.40
52799;DHT22;38667;42.872;74.622;2022-12-20T06:08:24;6.10;38.50
52799;DHT22;38667;42.872;74.622;2022-12-20T06:10:52;6.20;39.60
52799;DHT22;38667;42.872;74.622;2022-12-20T06:13:18;6.20;38.40
52799;DHT22;38667;42.872;74.622;2022-12-20T06:15:44;6.30;38.60
52799;DHT22;38667;42.872;74.622;2022-12-20T06:18:11;6.40;37.40
52799;DHT22;38667;42.872;74.622;2022-12-20T06:20:37;6.50;37.60
52799;DHT22;38667;42.872;74.622;2022-12-20T06:23:04;6.60;37.30
52799;DHT22;38667;42.872;74.622;2022-12-20T06:25:30;6.60;38.60
52799;DHT22;38667;42.872;74.622;2022-12-20T06:27:58;6.70;35.90
52799;DHT22;38667;42.872;74.622;2022-12-20T06:30:25;6.80;38.20
52799;DHT22;38667;42.872;74.622;2022-12-20T06:32:52;6.80;38.10
52799;DHT22;38667;42.872;74.622;2022-12-20T06:35:18;6.70;39.90
52799;DHT22;38667;42.872;74.622;2022-12-20T06:37:45;6.80;36.90
52799;DHT22;38667;42.872;74.622;2022-12-20T06:40:13;6.90;37.00
52799;DHT22;38667;42.872;74.622;2022-12-20T06:42:39;6.90;38.10
52799;DHT22;38667;42.872;74.622;2022-12-20T06:45:08;7.00;38.10
52799;DHT22;38667;42.872;74.622;2022-12-20T06:47:35;7.00;38.10
52799;DHT22;38667;42.872;74.622;2022-12-20T06:50:01;7.00;37.90
52799;DHT22;38667;42.872;74.622;2022-12-20T06:52:28;7.00;37.40
52799;DHT22;38667;42.872;74.622;2022-12-20T06:54:54;7.00;37.60
52799;DHT22;38667;42.872;74.622;2022-12-20T06:57:20;7.10;35.80
52799;DHT22;38667;42.872;74.622;2022-12-20T06:59:47;7.30;35.10
52799;DHT22;38667;42.872;74.622;2022-12-20T07:02:15;7.50;34.60
52799;DHT22;38667;42.872;74.622;2022-12-20T07:04:41;7.60;35.30
52799;DHT22;38667;42.872;74.622;2022-12-20T07:07:07;7.70;35.80
52799;DHT22;38667;42.872;74.622;2022-12-20T07:09:34;7.60;36.60
52799;DHT22;38667;42.872;74.622;2022-12-20T07:12:00;7.60;36.70
52799;DHT22;38667;42.872;74.622;2022-12-20T07:14:27;7.50;35.80
52799;DHT22;38667;42.872;74.622;2022-12-20T07:16:53;7.60;36.00
52799;DHT22;38667;42.872;74.622;2022-12-20T07:19:21;7.60;35.10
52799;DHT22;38667;42.872;74.622;2022-12-20T07:21:47;7.70;34.80
52799;DHT22;38667;42.872;74.622;2022-12-20T07:24:13;7.90;34.20
52799;DHT22;38667;42.872;74.622;2022-12-20T07:26:40;8.00;34.40
52799;DHT22;38667;42.872;74.622;2022-12-20T07:29:06;8.10;35.10
52799;DHT22;38667;42.872;74.622;2022-12-20T07:31:32;8.10;35.40
52799;DHT22;38667;42.872;74.622;2022-12-20T07:33:59;8.00;36.00
52799;DHT22;38667;42.872;74.622;2022-12-20T07:36:27;8.00;36.60
52799;DHT22;38667;42.872;74.622;2022-12-20T07:38:53;7.90;37.80
52799;DHT22;38667;42.872;74.622;2022-12-20T07:41:19;7.90;38.50
52799;DHT22;38667;42.872;74.622;2022-12-20T07:43:46;7.80;39.00
52799;DHT22;38667;42.872;74.622;2022-12-20T07:46:13;7.80;39.40
52799;DHT22;38667;42.872;74.622;2022-12-20T07:48:39;7.80;39.70
52799;DHT22;38667;42.872;74.622;2022-12-20T07:51:08;7.80;40.00
52799;DHT22;38667;42.872;74.622;2022-12-20T07:53:38;7.80;39.80
52799;DHT22;38667;42.872;74.622;2022-12-20T07:56:07;7.90;39.40
52799;DHT22;38667;42.872;74.622;2022-12-20T07:58:36;7.90;40.00
52799;DHT22;38667;42.872;74.622;2022-12-20T08:01:04;7.90;40.60
52799;DHT22;38667;42.872;74.622;2022-12-20T08:03:34;7.80;40.80
52799;DHT22;38667;42.872;74.622;2022-12-20T08:06:03;7.80;41.00
52799;DHT22;38667;42.872;74.622;2022-12-20T08:08:42;7.90;41.40
52799;DHT22;38667;42.872;74.622;2022-12-20T08:11:11;7.90;41.70
52799;DHT22;38667;42.872;74.622;2022-12-20T08:13:38;7.90;41.50
52799;DHT22;38667;42.872;74.622;2022-12-20T08:16:05;7.90;41.60
52799;DHT22;38667;42.872;74.622;2022-12-20T08:18:32;7.90;41.20
52799;DHT22;38667;42.872;74.622;2022-12-20T08:20:58;7.90;41.10
52799;DHT22;38667;42.872;74.622;2022-12-20T08:23:24;8.00;41.30
52799;DHT22;38667;42.872;74.622;2022-12-20T08:25:52;7.90;41.20
52799;DHT22;38667;42.872;74.622;2022-12-20T08:28:18;8.00;41.20
52799;DHT22;38667;42.872;74.622;2022-12-20T08:30:45;8.00;41.30
52799;DHT22;38667;42.872;74.622;2022-12-20T08:33:11;8.00;40.60
52799;DHT22;38667;42.872;74.622;2022-12-20T08:35:38;8.00;40.50
52799;DHT22;38667;42.872;74.622;2022-12-20T08:38:04;8.10;40.10
52799;DHT22;38667;42.872;74.622;2022-12-20T08:40:30;8.10;40.60
52799;DHT22;38667;42.872;74.622;2022-12-20T08:42:59;8.10;41.20
52799;DHT22;38667;42.872;74.622;2022-12-20T08:45:26;8.10;40.60
52799;DHT22;38667;42.872;74.622;2022-12-20T08:47:53;8.10;41.00
52799;DHT22;38667;42.872;74.622;2022-12-20T08:50:19;8.10;40.70
52799;DHT22;38667;42.872;74.622;2022-12-20T08:52:45;8.20;40.30
52799;DHT22;38667;42.872;74.622;2022-12-20T08:55:12;8.20;40.30
52799;DHT22;38667;42.872;74.622;2022-12-20T08:57:38;8.20;40.20
52799;DHT22;38667;42.872;74.622;2022-12-20T09:00:07;8.20;40.30
52799;DHT22;38667;42.872;74.622;2022-12-20T09:02:34;8.20;40.70
52799;DHT22;38667;42.872;74.622;2022-12-20T09:05:00;8.20;41.10
52799;DHT22;38667;42.872;74.622;2022-12-20T09:07:27;8.10;41.30
52799;DHT22;38667;42.872;74.622;2022-12-20T09:09:53;8.10;41.30
52799;DHT22;38667;42.872;74.622;2022-12-20T09:12:20;8.10;41.40
52799;DHT22;38667;42.872;74.622;2022-12-20T09:14:46;8.10;41.30
52799;DHT22;38667;42.872;74.622;2022-12-20T09:17:15;8.10;41.40
52799;DHT22;38667;42.872;74.622;2022-12-20T09:19:41;8.10;41.40
52799;DHT22;38667;42.872;74.622;2022-12-20T09:22:07;8.10;41.50
52799;DHT22;38667;42.872;74.622;2022-12-20T09:24:34;8.10;41.50
52799;DHT22;38667;42.872;74.622;2022-12-20T09:27:02;8.10;41.80
52799;DHT22;38667;42.872;74.622;2022-12-20T09:29:28;8.10;41.90
52799;DHT22;38667;42.872;74.622;2022-12-20T09:31:55;8.00;41.80
52799;DHT22;38667;42.872;74.622;2022-12-20T09:34:23;8.00;42.20
52799;DHT22;38667;42.872;74.622;2022-12-20T09:36:49;8.00;42.20
52799;DHT22;38667;42.872;74.622;2022-12-20T09:39:15;8.00;42.30
52799;DHT22;38667;42.872;74.622;2022-12-20T09:41:42;8.00;42.50
52799;DHT22;38667;42.872;74.622;2022-12-20T09:44:15;8.00;42.00
52799;DHT22;38667;42.872;74.622;2022-12-20T09:46:41;8.00;41.20
52799;DHT22;38667;42.872;74.622;2022-12-20T09:49:11;8.00;41.90
52799;DHT22;38667;42.872;74.622;2022-12-20T09:52:00;8.00;42.40
52799;DHT22;38667;42.872;74.622;2022-12-20T09:54:35;7.90;42.70
52799;DHT22;38667;42.872;74.622;2022-12-20T09:57:10;7.90;42.60
52799;DHT22;38667;42.872;74.622;2022-12-20T09:59:43;7.90;42.70
52799;DHT22;38667;42.872;74.622;2022-12-20T10:02:11;7.90;43.00
52799;DHT22;38667;42.872;74.622;2022-12-20T10:04:38;7.90;43.10
52799;DHT22;38667;42.872;74.622;2022-12-20T10:07:16;7.90;43.30
52799;DHT22;38667;42.872;74.622;2022-12-20T10:09:59;7.80;43.30
52799;DHT22;38667;42.872;74.622;2022-12-20T10:12:36;7.80;43.50
52799;DHT22;38667;42.872;74.622;2022-12-20T10:15:17;7.80;43.50
52799;DHT22;38667;42.872;74.622;2022-12-20T10:20:45;7.70;44.00
52799;DHT22;38667;42.872;74.622;2022-12-20T10:23:20;7.70;44.10
52799;DHT22;38667;42.872;74.622;2022-12-20T10:25:49;7.70;44.00
52799;DHT22;38667;42.872;74.622;2022-12-20T10:28:15;7.70;44.00
52799;DHT22;38667;42.872;74.622;2022-12-20T10:30:42;7.60;44.50
52799;DHT22;38667;42.872;74.622;2022-12-20T10:33:15;7.60;44.80
52799;DHT22;38667;42.872;74.622;2022-12-20T10:35:43;7.50;45.20
52799;DHT22;38667;42.872;74.622;2022-12-20T10:38:10;7.50;45.50
52799;DHT22;38667;42.872;74.622;2022-12-20T10:40:40;7.40;45.70
52799;DHT22;38667;42.872;74.622;2022-12-20T10:43:16;7.40;45.80
52799;DHT22;38667;42.872;74.622;2022-12-20T10:45:54;7.40;45.80
52799;DHT22;38667;42.872;74.622;2022-12-20T10:48:30;7.30;46.30
52799;DHT22;38667;42.872;74.622;2022-12-20T10:50:58;7.20;46.40
52799;DHT22;38667;42.872;74.622;2022-12-20T10:53:25;7.20;46.70
52799;DHT22;38667;42.872;74.622;2022-12-20T10:56:18;7.20;46.80
52799;DHT22;38667;42.872;74.622;2022-12-20T10:59:22;7.20;47.10
52799;DHT22;38667;42.872;74.622;2022-12-20T11:01:49;7.20;47.20
52799;DHT22;38667;42.872;74.622;2022-12-20T11:04:25;7.20;47.40
52799;DHT22;38667;42.872;74.622;2022-12-20T11:06:52;7.20;47.50
52799;DHT22;38667;42.872;74.622;2022-12-20T11:09:23;7.20;47.50
52799;DHT22;38667;42.872;74.622;2022-12-20T11:12:13;7.10;47.70
52799;DHT22;38667;42.872;74.622;2022-12-20T11:14:41;7.10;47.60
52799;DHT22;38667;42.872;74.622;2022-12-20T11:17:20;7.00;47.80
52799;DHT22;38667;42.872;74.622;2022-12-20T11:20:11;6.90;48.00
52799;DHT22;38667;42.872;74.622;2022-12-20T11:22:53;7.10;48.30
52799;DHT22;38667;42.872;74.622;2022-12-20T11:25:35;6.90;48.40
52799;DHT22;38667;42.872;74.622;2022-12-20T11:28:18;6.80;48.90
52799;DHT22;38667;42.872;74.622;2022-12-20T11:30:53;6.70;49.40
52799;DHT22;38667;42.872;74.622;2022-12-20T11:33:46;6.50;49.90
52799;DHT22;38667;42.872;74.622;2022-12-20T11:36:21;6.40;50.20
52799;DHT22;38667;42.872;74.622;2022-12-20T11:38:53;6.30;50.30
52799;DHT22;38667;42.872;74.622;2022-12-20T11:41:28;6.20;50.60
52799;DHT22;38667;42.872;74.622;2022-12-20T11:44:09;6.10;50.50
52799;DHT22;38667;42.872;74.622;2022-12-20T11:46:50;6.00;50.80
52799;DHT22;38667;42.872;74.622;2022-12-20T11:49:47;5.90;51.30
52799;DHT22;38667;42.872;74.622;2022-12-20T11:52:21;5.90;51.50
52799;DHT22;38667;42.872;74.622;2022-12-20T11:55:01;5.90;51.20
52799;DHT22;38667;42.872;74.622;2022-12-20T11:57:33;5.80;51.60
52799;DHT22;38667;42.872;74.622;2022-12-20T12:00:05;5.80;51.10
52799;DHT22;38667;42.872;74.622;2022-12-20T12:02:35;5.70;51.60
52799;DHT22;38667;42.872;74.622;2022-12-20T12:05:05;5.70;51.80
52799;DHT22;38667;42.872;74.622;2022-12-20T12:07:34;5.60;51.90
52799;DHT22;38667;42.872;74.622;2022-12-20T12:10:03;5.50;52.00
52799;DHT22;38667;42.872;74.622;2022-12-20T12:12:33;5.50;51.70
52799;DHT22;38667;42.872;74.622;2022-12-20T12:15:17;5.50;52.00
52799;DHT22;38667;42.872;74.622;2022-12-20T12:17:50;5.50;52.30
52799;DHT22;38667;42.872;74.622;2022-12-20T12:20:24;5.40;52.60
52799;DHT22;38667;42.872;74.622;2022-12-20T12:22:57;5.40;52.70
52799;DHT22;38667;42.872;74.622;2022-12-20T12:25:26;5.30;53.20
52799;DHT22;38667;42.872;74.622;2022-12-20T12:27:52;5.20;53.50
52799;DHT22;38667;42.872;74.622;2022-12-20T12:30:21;5.10;53.80
52799;DHT22;38667;42.872;74.622;2022-12-20T12:32:52;5.10;54.10
52799;DHT22;38667;42.872;74.622;2022-12-20T12:38:48;4.90;54.10
52799;DHT22;38667;42.872;74.622;2022-12-20T12:41:33;4.80;54.30
52799;DHT22;38667;42.872;74.622;2022-12-20T12:44:29;4.80;53.80
52799;DHT22;38667;42.872;74.622;2022-12-20T12:47:02;4.80;53.30
52799;DHT22;38667;42.872;74.622;2022-12-20T12:49:31;4.80;52.30
52799;DHT22;38667;42.872;74.622;2022-12-20T12:51:59;4.90;51.20
52799;DHT22;38667;42.872;74.622;2022-12-20T12:54:33;4.90;51.30
52799;DHT22;38667;42.872;74.622;2022-12-20T12:57:02;4.90;51.70
52799;DHT22;38667;42.872;74.622;2022-12-20T12:59:49;4.80;51.50
52799;DHT22;38667;42.872;74.622;2022-12-20T13:02:35;4.70;51.10
52799;DHT22;38667;42.872;74.622;2022-12-20T13:05:31;4.70;50.40
52799;DHT22;38667;42.872;74.622;2022-12-20T13:07:57;4.70;50.10
52799;DHT22;38667;42.872;74.622;2022-12-20T13:11:01;4.80;50.50
52799;DHT22;38667;42.872;74.622;2022-12-20T13:13:27;4.70;51.40
52799;DHT22;38667;42.872;74.622;2022-12-20T13:16:26;4.70;51.60
52799;DHT22;38667;42.872;74.622;2022-12-20T13:19:10;4.70;51.30
52799;DHT22;38667;42.872;74.622;2022-12-20T13:21:39;4.70;51.70
52799;DHT22;38667;42.872;74.622;2022-12-20T13:24:48;4.80;51.40
52799;DHT22;38667;42.872;74.622;2022-12-20T13:27:32;4.70;52.20
52799;DHT22;38667;42.872;74.622;2022-12-20T13:33:20;4.70;52.70
52799;DHT22;38667;42.872;74.622;2022-12-20T13:36:04;4.60;52.40
52799;DHT22;38667;42.872;74.622;2022-12-20T13:39:07;4.50;53.10
52799;DHT22;38667;42.872;74.622;2022-12-20T13:41:52;4.40;53.50
52799;DHT22;38667;42.872;74.622;2022-12-20T13:44:35;4.40;53.80
52799;DHT22;38667;42.872;74.622;2022-12-20T13:47:11;4.40;54.60
52799;DHT22;38667;42.872;74.622;2022-12-20T13:49:39;4.20;55.00
52799;DHT22;38667;42.872;74.622;2022-12-20T13:52:28;4.10;55.30
52799;DHT22;38667;42.872;74.622;2022-12-20T13:54:57;4.10;55.30
52799;DHT22;38667;42.872;74.622;2022-12-20T13:57:28;4.00;55.80
52799;DHT22;38667;42.872;74.622;2022-12-20T13:59:59;4.00;55.80
52799;DHT22;38667;42.872;74.622;2022-12-20T14:02:29;4.00;55.80
52799;DHT22;38667;42.872;74.622;2022-12-20T14:05:00;3.90;56.60
52799;DHT22;38667;42.872;74.622;2022-12-20T14:07:29;3.80;55.80
52799;DHT22;38667;42.872;74.622;2022-12-20T14:09:59;3.80;55.30
52799;DHT22;38667;42.872;74.622;2022-12-20T14:12:26;3.70;55.20
52799;DHT22;38667;42.872;74.622;2022-12-20T14:14:54;3.70;51.60
52799;DHT22;38667;42.872;74.622;2022-12-20T14:17:25;3.90;53.00
52799;DHT22;38667;42.872;74.622;2022-12-20T14:20:12;3.90;53.50
52799;DHT22;38667;42.872;74.622;2022-12-20T14:22:49;3.90;53.50
52799;DHT22;38667;42.872;74.622;2022-12-20T14:25:23;3.80;53.80
52799;DHT22;38667;42.872;74.622;2022-12-20T14:27:51;3.80;55.10
52799;DHT22;38667;42.872;74.622;2022-12-20T14:30:27;3.60;55.10
52799;DHT22;38667;42.872;74.622;2022-12-20T14:32:54;3.60;56.00
52799;DHT22;38667;42.872;74.622;2022-12-20T14:35:21;3.50;55.60
52799;DHT22;38667;42.872;74.622;2022-12-20T14:37:54;3.40;56.70
52799;DHT22;38667;42.872;74.622;2022-12-20T14:40:22;3.30;56.60
52799;DHT22;38667;42.872;74.622;2022-12-20T14:42:49;3.20;55.90
52799;DHT22;38667;42.872;74.622;2022-12-20T14:45:19;3.20;55.90
52799;DHT22;38667;42.872;74.622;2022-12-20T14:47:52;3.00;56.30
52799;DHT22;38667;42.872;74.622;2022-12-20T14:50:23;3.00;56.20
52799;DHT22;38667;42.872;74.622;2022-12-20T14:52:50;2.90;56.10
52799;DHT22;38667;42.872;74.622;2022-12-20T14:55:19;2.90;56.50
52799;DHT22;38667;42.872;74.622;2022-12-20T14:57:47;3.00;55.40
52799;DHT22;38667;42.872;74.622;2022-12-20T15:00:19;3.10;55.30
52799;DHT22;38667;42.872;74.622;2022-12-20T15:02:50;3.10;55.90
52799;DHT22;38667;42.872;74.622;2022-12-20T15:05:40;3.00;55.80
52799;DHT22;38667;42.872;74.622;2022-12-20T15:08:11;3.00;56.30
52799;DHT22;38667;42.872;74.622;2022-12-20T15:10:39;3.00;54.40
52799;DHT22;38667;42.872;74.622;2022-12-20T15:13:10;3.10;54.40
52799;DHT22;38667;42.872;74.622;2022-12-20T15:15:37;3.20;53.40
52799;DHT22;38667;42.872;74.622;2022-12-20T15:18:09;3.20;54.50
52799;DHT22;38667;42.872;74.622;2022-12-20T15:20:36;3.10;54.30
52799;DHT22;38667;42.872;74.622;2022-12-20T15:23:02;3.10;54.40
52799;DHT22;38667;42.872;74.622;2022-12-20T15:25:30;3.00;54.10
52799;DHT22;38667;42.872;74.622;2022-12-20T15:28:00;2.90;54.40
52799;DHT22;38667;42.872;74.622;2022-12-20T15:30:26;2.80;54.70
52799;DHT22;38667;42.872;74.622;2022-12-20T15:32:53;2.80;55.10
52799;DHT22;38667;42.872;74.622;2022-12-20T15:35:19;2.80;54.50
52799;DHT22;38667;42.872;74.622;2022-12-20T15:37:45;2.80;54.80
52799;DHT22;38667;42.872;74.622;2022-12-20T15:40:16;2.90;55.10
52799;DHT22;38667;42.872;74.622;2022-12-20T15:42:42;2.80;55.30
52799;DHT22;38667;42.872;74.622;2022-12-20T15:45:14;2.80;54.40
52799;DHT22;38667;42.872;74.622;2022-12-20T15:47:40;3.10;52.30
52799;DHT22;38667;42.872;74.622;2022-12-20T15:50:08;3.20;53.30
52799;DHT22;38667;42.872;74.622;2022-12-20T15:52:35;3.20;53.20
52799;DHT22;38667;42.872;74.622;2022-12-20T15:55:01;3.20;52.20
52799;DHT22;38667;42.872;74.622;2022-12-20T15:57:27;3.30;52.60
52799;DHT22;38667;42.872;74.622;2022-12-20T15:59:54;3.30;51.00